createdAt,value
2022-10-16T06:15:21.448Z,176.43
2022-10-16T06:25:21.502Z,170.57
2022-10-16T06:35:21.575Z,174.53
2022-10-16T06:45:21.548Z,178.78
2022-10-16T06:55:21.519Z,176.64
2022-10-16T07:05:21.605Z,179.05
2022-10-16T07:15:21.632Z,179.28
2022-10-16T07:25:21.686Z,179.29
2022-10-16T07:35:21.656Z,179.77
2022-10-16T07:45:21.566Z,179.05
2022-10-16T07:55:21.564Z,179.32
2022-10-16T08:05:21.600Z,179.32
2022-10-16T08:15:21.593Z,179.33
2022-10-16T08:25:21.670Z,180.41
2022-10-16T08:35:21.755Z,179.89
2022-10-16T08:45:22.050Z,179.42
2022-10-16T08:55:22.026Z,178.76
2022-10-16T09:05:22.100Z,175.39
2022-10-16T09:15:22.085Z,178.84
2022-10-16T09:25:22.028Z,178.24
2022-10-16T09:35:22.155Z,179.42
2022-10-16T09:45:22.097Z,182.58
2022-10-16T09:55:21.964Z,186.88
2022-10-16T10:05:22.056Z,178.67
2022-10-16T10:15:22.166Z,179.79
2022-10-16T10:25:22.233Z,189.78
2022-10-16T10:35:22.095Z,182.97
2022-10-16T10:45:21.976Z,178.74
2022-10-16T10:55:22.097Z,177.10
2022-10-16T11:05:22.105Z,178.69
2022-10-16T11:15:22.052Z,179.59
2022-10-16T11:25:22.149Z,188.31
2022-10-16T11:35:22.098Z,204.51
2022-10-16T11:45:21.986Z,181.67
2022-10-16T11:55:22.132Z,182.41
2022-10-16T12:05:22.109Z,341.71
2022-10-16T12:15:35.171Z,181.99
2022-10-16T12:25:22.277Z,180.46
2022-10-16T12:35:22.297Z,197.01
2022-10-16T12:45:22.214Z,226.65
2022-10-16T12:55:23.112Z,205.44
2022-10-16T13:05:22.126Z,183.97
2022-10-16T13:15:22.397Z,211.50
2022-10-16T13:25:22.330Z,189.60
2022-10-16T13:35:22.263Z,240.64
2022-10-16T13:45:22.248Z,225.91
2022-10-16T13:55:22.386Z,341.97
2022-10-16T14:05:22.364Z,189.09
2022-10-16T14:15:22.445Z,179.55
2022-10-16T14:25:22.199Z,187.94
2022-10-16T14:35:22.384Z,177.69
2022-10-16T14:45:22.249Z,184.83
2022-10-16T15:05:22.399Z,193.70
2022-10-16T15:15:22.429Z,180.00
2022-10-16T15:25:22.410Z,195.26
2022-10-16T15:35:22.480Z,180.00
2022-10-16T15:45:22.532Z,180.81
2022-10-16T15:55:22.518Z,180.00
2022-10-16T16:05:22.439Z,180.00
2022-10-16T16:15:22.529Z,218.75
2022-10-16T16:25:22.431Z,214.31
2022-10-16T16:35:22.454Z,180.00
2022-10-16T16:45:22.533Z,180.00
2022-10-16T16:55:22.521Z,152.90
2022-10-16T17:05:22.579Z,135.00
2022-10-16T17:15:22.461Z,135.00
2022-10-16T17:25:24.974Z,135.00
2022-10-16T17:35:22.621Z,170.72
2022-10-16T17:45:22.549Z,180.00
2022-10-16T17:55:26.401Z,172.41
2022-10-16T18:05:22.716Z,95.01
2022-10-16T18:15:22.622Z,80.19
2022-10-16T18:25:22.558Z,90.00
2022-10-16T18:35:22.672Z,90.00
2022-10-16T18:45:22.587Z,90.00
2022-10-16T18:55:22.594Z,90.00
2022-10-16T19:05:22.666Z,90.00
2022-10-16T19:15:22.694Z,90.00
